sensor_id;sensor_type;location;lat;lon;timestamp;noise_LAeq;noise_LA_min;noise_LA_max;noise_LA01;noise_LA95
69617;Laerm;58075;52.218;4.640;2022-11-15T00:00:10;37.86;30.71;49.91;;
69617;Laerm;58075;52.218;4.640;2022-11-15T00:00:20;32.06;30.42;34.22;;
69617;Laerm;58075;52.218;4.640;2022-11-15T00:00:30;32.01;30.48;33.57;;
69617;Laerm;58075;52.218;4.640;2022-11-15T00:00:41;33.58;30.54;42.78;;
69617;Laerm;58075;52.218;4.640;2022-11-15T00:00:51;31.83;30.24;34.88;;
69617;Laerm;58075;52.218;4.640;2022-11-15T00:01:02;32.69;29.81;40.58;;
69617;Laerm;58075;52.218;4.640;2022-11-15T00:01:16;31.50;29.91;35.07;;
69617;Laerm;58075;52.218;4.640;2022-11-15T00:01:27;31.30;30.01;32.56;;
69617;Laerm;58075;52.218;4.640;2022-11-15T00:01:38;31.43;30.00;32.61;;
69617;Laerm;58075;52.218;4.640;2022-11-15T00:01:48;31.30;29.42;32.95;;
69617;Laerm;58075;52.218;4.640;2022-11-15T00:01:58;30.68;29.42;33.75;;
69617;Laerm;58075;52.218;4.640;2022-11-15T00:02:09;32.67;29.41;44.23;;
69617;Laerm;58075;52.218;4.640;2022-11-15T00:02:19;31.56;29.86;34.67;;
69617;Laerm;58075;52.218;4.640;2022-11-15T00:02:29;32.08;29.97;35.06;;
69617;Laerm;58075;52.218;4.640;2022-11-15T00:02:39;32.26;29.84;42.01;;
69617;Laerm;58075;52.218;4.640;2022-11-15T00:02:51;31.85;30.53;33.43;;
69617;Laerm;58075;52.218;4.640;2022-11-15T00:03:02;32.50;30.16;39.86;;
69617;Laerm;58075;52.218;4.640;2022-11-15T00:03:13;32.76;30.65;40.21;;
69617;Laerm;58075;52.218;4.640;2022-11-15T00:03:24;31.98;30.29;34.92;;
69617;Laerm;58075;52.218;4.640;2022-11-15T00:03:35;32.49;30.69;34.93;;
69617;Laerm;58075;52.218;4.640;2022-11-15T00:03:45;33.23;30.87;35.47;;
69617;Laerm;58075;52.218;4.640;2022-11-15T00:03:56;31.84;29.89;33.45;;
69617;Laerm;58075;52.218;4.640;2022-11-15T00:04:06;32.15;30.48;35.08;;
69617;Laerm;58075;52.218;4.640;2022-11-15T00:04:16;33.43;29.69;42.41;;
69617;Laerm;58075;52.218;4.640;2022-11-15T00:04:27;32.18;30.40;40.50;;
69617;Laerm;58075;52.218;4.640;2022-11-15T00:04:37;32.47;30.78;35.21;;
69617;Laerm;58075;52.218;4.640;2022-11-15T00:04:47;31.44;29.93;33.41;;
69617;Laerm;58075;52.218;4.640;2022-11-15T00:04:57;31.23;29.63;32.48;;
69617;Laerm;58075;52.218;4.640;2022-11-15T00:05:08;37.69;30.54;51.87;;
69617;Laerm;58075;52.218;4.640;2022-11-15T00:05:18;32.31;30.42;34.63;;
69617;Laerm;58075;52.218;4.640;2022-11-15T00:05:28;32.96;31.06;35.53;;
69617;Laerm;58075;52.218;4.640;2022-11-15T00:05:38;31.88;30.08;33.68;;
69617;Laerm;58075;52.218;4.640;2022-11-15T00:05:49;31.57;29.97;38.10;;
69617;Laerm;58075;52.218;4.640;2022-11-15T00:06:02;32.78;30.16;41.80;;
69617;Laerm;58075;52.218;4.640;2022-11-15T00:06:13;31.86;30.22;38.74;;
69617;Laerm;58075;52.218;4.640;2022-11-15T00:06:23;31.77;30.06;35.11;;
69617;Laerm;58075;52.218;4.640;2022-11-15T00:06:34;32.09;30.58;33.62;;
69617;Laerm;58075;52.218;4.640;2022-11-15T00:06:44;33.98;29.99;44.34;;
69617;Laerm;58075;52.218;4.640;2022-11-15T00:06:54;38.89;29.63;53.67;;
69617;Laerm;58075;52.218;4.640;2022-11-15T00:07:05;33.06;30.28;45.35;;
69617;Laerm;58075;52.218;4.640;2022-11-15T00:07:15;32.13;30.67;37.74;;
69617;Laerm;58075;52.218;4.640;2022-11-15T00:07:25;32.90;31.14;36.01;;
69617;Laerm;58075;52.218;4.640;2022-11-15T00:07:35;39.64;32.37;46.56;;
69617;Laerm;58075;52.218;4.640;2022-11-15T00:07:46;35.51;33.27;40.01;;
69617;Laerm;58075;52.218;4.640;2022-11-15T00:07:56;35.60;33.58;38.15;;
69617;Laerm;58075;52.218;4.640;2022-11-15T00:08:06;34.59;31.00;40.73;;
69617;Laerm;58075;52.218;4.640;2022-11-15T00:08:17;37.20;30.77;53.60;;
69617;Laerm;58075;52.218;4.640;2022-11-15T00:08:31;34.91;30.89;46.96;;
69617;Laerm;58075;52.218;4.640;2022-11-15T00:08:41;34.47;31.60;44.99;;
69617;Laerm;58075;52.218;4.640;2022-11-15T00:08:51;36.04;30.19;44.77;;
69617;Laerm;58075;52.218;4.640;2022-11-15T00:09:02;32.87;31.00;41.89;;
69617;Laerm;58075;52.218;4.640;2022-11-15T00:09:12;32.11;30.32;34.08;;
69617;Laerm;58075;52.218;4.640;2022-11-15T00:09:22;32.17;30.33;35.38;;
69617;Laerm;58075;52.218;4.640;2022-11-15T00:09:33;31.53;30.16;32.80;;
69617;Laerm;58075;52.218;4.640;2022-11-15T00:09:43;32.59;30.58;39.02;;
69617;Laerm;58075;52.218;4.640;2022-11-15T00:09:53;32.24;30.07;38.92;;
69617;Laerm;58075;52.218;4.640;2022-11-15T00:10:04;35.87;30.67;44.84;;
69617;Laerm;58075;52.218;4.640;2022-11-15T00:10:14;32.94;30.27;41.45;;
69617;Laerm;58075;52.218;4.640;2022-11-15T00:10:24;33.09;30.31;45.13;;
69617;Laerm;58075;52.218;4.640;2022-11-15T00:10:35;32.17;30.52;38.89;;
69617;Laerm;58075;52.218;4.640;2022-11-15T00:10:55;31.09;29.64;32.80;;
69617;Laerm;58075;52.218;4.640;2022-11-15T00:11:05;31.38;29.67;35.78;;
69617;Laerm;58075;52.218;4.640;2022-11-15T00:11:16;33.23;30.59;36.73;;
69617;Laerm;58075;52.218;4.640;2022-11-15T00:11:26;39.50;35.40;51.16;;
69617;Laerm;58075;52.218;4.640;2022-11-15T00:11:36;36.42;32.69;46.68;;
69617;Laerm;58075;52.218;4.640;2022-11-15T00:11:47;34.69;32.48;36.95;;
69617;Laerm;58075;52.218;4.640;2022-11-15T00:11:57;33.93;32.12;37.69;;
69617;Laerm;58075;52.218;4.640;2022-11-15T00:12:07;33.39;32.03;35.28;;
69617;Laerm;58075;52.218;4.640;2022-11-15T00:12:17;32.71;31.32;35.98;;
69617;Laerm;58075;52.218;4.640;2022-11-15T00:12:28;32.19;30.58;34.80;;
69617;Laerm;58075;52.218;4.640;2022-11-15T00:12:38;31.99;30.55;33.86;;
69617;Laerm;58075;52.218;4.640;2022-11-15T00:12:49;33.22;31.38;36.78;;
69617;Laerm;58075;52.218;4.640;2022-11-15T00:12:59;39.24;32.25;44.43;;
69617;Laerm;58075;52.218;4.640;2022-11-15T00:13:10;34.53;32.12;39.21;;
69617;Laerm;58075;52.218;4.640;2022-11-15T00:13:21;33.05;30.92;40.46;;
69617;Laerm;58075;52.218;4.640;2022-11-15T00:13:31;33.23;30.61;36.16;;
69617;Laerm;58075;52.218;4.640;2022-11-15T00:13:41;34.36;32.21;36.52;;
69617;Laerm;58075;52.218;4.640;2022-11-15T00:13:58;32.65;31.05;35.98;;
69617;Laerm;58075;52.218;4.640;2022-11-15T00:14:08;32.99;30.16;39.10;;
69617;Laerm;58075;52.218;4.640;2022-11-15T00:14:18;32.01;29.97;33.82;;
69617;Laerm;58075;52.218;4.640;2022-11-15T00:14:29;32.32;30.48;34.36;;
69617;Laerm;58075;52.218;4.640;2022-11-15T00:14:39;32.33;30.33;38.14;;
69617;Laerm;58075;52.218;4.640;2022-11-15T00:14:49;31.59;29.54;33.54;;
69617;Laerm;58075;52.218;4.640;2022-11-15T00:15:00;31.59;29.92;33.81;;
69617;Laerm;58075;52.218;4.640;2022-11-15T00:15:10;31.29;29.52;32.99;;
69617;Laerm;58075;52.218;4.640;2022-11-15T00:15:20;31.20;30.01;33.60;;
69617;Laerm;58075;52.218;4.640;2022-11-15T00:15:30;31.61;29.91;33.15;;
69617;Laerm;58075;52.218;4.640;2022-11-15T00:15:41;31.84;30.08;33.77;;
69617;Laerm;58075;52.218;4.640;2022-11-15T00:15:51;31.98;30.24;36.31;;
69617;Laerm;58075;52.218;4.640;2022-11-15T00:16:02;31.43;30.00;35.63;;
69617;Laerm;58075;52.218;4.640;2022-11-15T00:16:12;31.89;30.41;34.46;;
69617;Laerm;58075;52.218;4.640;2022-11-15T00:16:23;32.33;30.04;37.80;;
69617;Laerm;58075;52.218;4.640;2022-11-15T00:16:33;35.92;30.96;54.19;;
69617;Laerm;58075;52.218;4.640;2022-11-15T00:16:43;32.63;30.90;34.16;;
69617;Laerm;58075;52.218;4.640;2022-11-15T00:16:54;31.83;30.03;33.80;;
69617;Laerm;58075;52.218;4.640;2022-11-15T00:17:04;32.91;30.50;35.28;;
69617;Laerm;58075;52.218;4.640;2022-11-15T00:17:14;34.44;30.35;44.94;;
69617;Laerm;58075;52.218;4.640;2022-11-15T00:17:25;32.48;30.67;34.36;;
69617;Laerm;58075;52.218;4.640;2022-11-15T00:17:35;32.12;30.24;35.30;;
69617;Laerm;58075;52.218;4.640;2022-11-15T00:17:48;33.62;30.42;45.21;;
69617;Laerm;58075;52.218;4.640;2022-11-15T00:17:58;32.08;30.81;33.41;;
69617;Laerm;58075;52.218;4.640;2022-11-15T00:18:14;32.48;30.38;40.30;;
69617;Laerm;58075;52.218;4.640;2022-11-15T00:18:25;35.07;30.07;45.05;;
69617;Laerm;58075;52.218;4.640;2022-11-15T00:18:35;32.70;30.93;39.22;;
69617;Laerm;58075;52.218;4.640;2022-11-15T00:18:45;32.67;30.98;37.07;;
69617;Laerm;58075;52.218;4.640;2022-11-15T00:18:56;33.18;31.07;36.56;;
69617;Laerm;58075;52.218;4.640;2022-11-15T00:19:07;31.85;29.96;36.87;;
69617;Laerm;58075;52.218;4.640;2022-11-15T00:19:17;31.53;29.63;36.83;;
69617;Laerm;58075;52.218;4.640;2022-11-15T00:19:28;32.07;29.95;34.82;;
69617;Laerm;58075;52.218;4.640;2022-11-15T00:19:38;32.18;30.15;34.62;;
69617;Laerm;58075;52.218;4.640;2022-11-15T00:19:48;31.89;30.35;34.13;;
69617;Laerm;58075;52.218;4.640;2022-11-15T00:19:59;32.04;30.18;33.84;;
69617;Laerm;58075;52.218;4.640;2022-11-15T00:20:09;33.28;31.21;40.20;;
69617;Laerm;58075;52.218;4.640;2022-11-15T00:20:21;36.63;31.83;44.23;;
69617;Laerm;58075;52.218;4.640;2022-11-15T00:20:34;38.02;34.55;41.86;;
69617;Laerm;58075;52.218;4.640;2022-11-15T00:20:44;38.53;33.12;43.27;;
69617;Laerm;58075;52.218;4.640;2022-11-15T00:20:55;33.20;30.83;39.78;;
69617;Laerm;58075;52.218;4.640;2022-11-15T00:21:07;33.27;31.26;46.15;;
69617;Laerm;58075;52.218;4.640;2022-11-15T00:21:18;32.89;31.50;34.85;;
69617;Laerm;58075;52.218;4.640;2022-11-15T00:21:28;33.75;31.67;43.43;;
69617;Laerm;58075;52.218;4.640;2022-11-15T00:21:38;35.80;32.87;43.18;;
69617;Laerm;58075;52.218;4.640;2022-11-15T00:21:49;41.56;36.58;46.80;;
69617;Laerm;58075;52.218;4.640;2022-11-15T00:21:59;37.19;32.16;48.38;;
69617;Laerm;58075;52.218;4.640;2022-11-15T00:22:09;37.85;33.07;53.02;;
69617;Laerm;58075;52.218;4.640;2022-11-15T00:22:19;41.76;37.17;47.46;;
69617;Laerm;58075;52.218;4.640;2022-11-15T00:22:32;38.69;35.25;42.17;;
69617;Laerm;58075;52.218;4.640;2022-11-15T00:22:43;35.09;32.10;39.07;;
69617;Laerm;58075;52.218;4.640;2022-11-15T00:22:53;33.87;31.79;37.53;;
69617;Laerm;58075;52.218;4.640;2022-11-15T00:23:04;33.48;30.68;42.78;;
69617;Laerm;58075;52.218;4.640;2022-11-15T00:23:14;33.53;29.97;43.07;;
69617;Laerm;58075;52.218;4.640;2022-11-15T00:23:24;36.44;30.23;47.59;;
69617;Laerm;58075;52.218;4.640;2022-11-15T00:23:35;35.10;30.14;47.92;;
69617;Laerm;58075;52.218;4.640;2022-11-15T00:23:45;31.43;30.18;32.73;;
69617;Laerm;58075;52.218;4.640;2022-11-15T00:23:55;31.93;30.27;34.12;;
69617;Laerm;58075;52.218;4.640;2022-11-15T00:24:05;33.07;30.65;42.45;;
69617;Laerm;58075;52.218;4.640;2022-11-15T00:24:16;32.15;30.49;36.49;;
69617;Laerm;58075;52.218;4.640;2022-11-15T00:24:26;35.40;32.17;42.31;;
69617;Laerm;58075;52.218;4.640;2022-11-15T00:24:36;33.54;31.37;36.75;;
69617;Laerm;58075;52.218;4.640;2022-11-15T00:24:47;32.44;31.05;35.14;;
69617;Laerm;58075;52.218;4.640;2022-11-15T00:24:57;32.99;31.04;41.11;;
69617;Laerm;58075;52.218;4.640;2022-11-15T00:25:08;36.77;31.05;48.63;;
69617;Laerm;58075;52.218;4.640;2022-11-15T00:25:18;41.34;30.89;54.08;;
69617;Laerm;58075;52.218;4.640;2022-11-15T00:25:28;33.90;30.53;43.44;;
69617;Laerm;58075;52.218;4.640;2022-11-15T00:25:38;32.36;30.36;34.82;;
69617;Laerm;58075;52.218;4.640;2022-11-15T00:25:55;31.76;29.54;36.56;;
69617;Laerm;58075;52.218;4.640;2022-11-15T00:26:05;31.85;29.65;37.04;;
69617;Laerm;58075;52.218;4.640;2022-11-15T00:26:16;32.31;30.79;34.24;;
69617;Laerm;58075;52.218;4.640;2022-11-15T00:26:26;31.67;30.23;33.23;;
69617;Laerm;58075;52.218;4.640;2022-11-15T00:26:36;46.70;30.83;61.29;;
69617;Laerm;58075;52.218;4.640;2022-11-15T00:26:47;43.48;31.07;56.45;;
69617;Laerm;58075;52.218;4.640;2022-11-15T00:26:57;32.04;30.52;33.64;;
69617;Laerm;58075;52.218;4.640;2022-11-15T00:27:07;31.94;29.98;36.37;;
69617;Laerm;58075;52.218;4.640;2022-11-15T00:27:17;31.99;30.34;34.14;;
69617;Laerm;58075;52.218;4.640;2022-11-15T00:27:28;32.42;30.69;34.18;;
69617;Laerm;58075;52.218;4.640;2022-11-15T00:27:38;32.71;30.53;34.83;;
69617;Laerm;58075;52.218;4.640;2022-11-15T00:27:48;32.50;30.67;34.73;;
69617;Laerm;58075;52.218;4.640;2022-11-15T00:27:59;32.16;30.27;34.10;;
69617;Laerm;58075;52.218;4.640;2022-11-15T00:28:10;36.14;30.13;54.11;;
69617;Laerm;58075;52.218;4.640;2022-11-15T00:28:20;33.49;30.04;44.33;;
69617;Laerm;58075;52.218;4.640;2022-11-15T00:28:30;32.92;30.02;44.60;;
69617;Laerm;58075;52.218;4.640;2022-11-15T00:28:41;32.12;29.83;42.14;;
69617;Laerm;58075;52.218;4.640;2022-11-15T00:28:52;31.56;30.15;35.76;;
69617;Laerm;58075;52.218;4.640;2022-11-15T00:29:02;31.65;30.11;37.00;;
69617;Laerm;58075;52.218;4.640;2022-11-15T00:29:13;32.73;30.67;35.28;;
69617;Laerm;58075;52.218;4.640;2022-11-15T00:29:23;42.03;33.83;47.76;;
69617;Laerm;58075;52.218;4.640;2022-11-15T00:29:33;35.19;32.72;37.79;;
69617;Laerm;58075;52.218;4.640;2022-11-15T00:29:44;33.12;31.12;36.69;;
69617;Laerm;58075;52.218;4.640;2022-11-15T00:29:54;33.27;31.11;37.66;;
69617;Laerm;58075;52.218;4.640;2022-11-15T00:30:04;35.54;31.28;43.47;;
69617;Laerm;58075;52.218;4.640;2022-11-15T00:30:15;34.36;31.90;41.80;;
69617;Laerm;58075;52.218;4.640;2022-11-15T00:30:25;37.00;30.74;48.63;;
69617;Laerm;58075;52.218;4.640;2022-11-15T00:30:36;32.07;30.66;35.89;;
69617;Laerm;58075;52.218;4.640;2022-11-15T00:30:46;32.45;30.81;40.29;;
69617;Laerm;58075;52.218;4.640;2022-11-15T00:31:00;32.66;30.74;35.08;;
69617;Laerm;58075;52.218;4.640;2022-11-15T00:31:13;32.22;30.26;33.98;;
69617;Laerm;58075;52.218;4.640;2022-11-15T00:31:23;32.20;30.25;40.30;;
69617;Laerm;58075;52.218;4.640;2022-11-15T00:31:33;33.77;30.00;43.30;;
69617;Laerm;58075;52.218;4.640;2022-11-15T00:31:44;31.69;29.87;37.93;;
69617;Laerm;58075;52.218;4.640;2022-11-15T00:31:54;31.15;29.22;37.20;;
69617;Laerm;58075;52.218;4.640;2022-11-15T00:32:04;31.93;30.03;37.42;;
69617;Laerm;58075;52.218;4.640;2022-11-15T00:32:15;31.64;30.22;35.86;;
69617;Laerm;58075;52.218;4.640;2022-11-15T00:32:25;32.47;30.34;39.17;;
69617;Laerm;58075;52.218;4.640;2022-11-15T00:32:35;32.06;30.06;37.48;;
69617;Laerm;58075;52.218;4.640;2022-11-15T00:32:45;31.37;30.03;33.80;;
69617;Laerm;58075;52.218;4.640;2022-11-15T00:32:56;32.71;30.28;36.86;;
69617;Laerm;58075;52.218;4.640;2022-11-15T00:33:06;32.45;30.67;34.44;;
69617;Laerm;58075;52.218;4.640;2022-11-15T00:33:17;38.99;32.01;46.46;;
69617;Laerm;58075;52.218;4.640;2022-11-15T00:33:27;36.57;31.88;43.44;;
69617;Laerm;58075;52.218;4.640;2022-11-15T00:33:37;34.40;30.02;52.97;;
69617;Laerm;58075;52.218;4.640;2022-11-15T00:33:48;32.10;30.41;42.62;;
69617;Laerm;58075;52.218;4.640;2022-11-15T00:33:58;32.76;30.44;38.09;;
69617;Laerm;58075;52.218;4.640;2022-11-15T00:34:09;31.30;29.77;33.70;;
69617;Laerm;58075;52.218;4.640;2022-11-15T00:34:19;32.15;29.97;34.26;;
69617;Laerm;58075;52.218;4.640;2022-11-15T00:34:29;39.98;32.02;45.64;;
69617;Laerm;58075;52.218;4.640;2022-11-15T00:34:39;35.18;32.56;38.45;;
69617;Laerm;58075;52.218;4.640;2022-11-15T00:34:50;32.56;30.25;35.48;;
69617;Laerm;58075;52.218;4.640;2022-11-15T00:35:00;31.63;30.15;32.89;;
69617;Laerm;58075;52.218;4.640;2022-11-15T00:35:10;31.96;30.55;33.88;;
69617;Laerm;58075;52.218;4.640;2022-11-15T00:35:21;34.33;30.74;41.51;;
69617;Laerm;58075;52.218;4.640;2022-11-15T00:35:32;44.05;35.62;51.92;;
69617;Laerm;58075;52.218;4.640;2022-11-15T00:35:43;33.92;31.12;36.98;;
69617;Laerm;58075;52.218;4.640;2022-11-15T00:35:53;31.45;29.93;34.12;;
69617;Laerm;58075;52.218;4.640;2022-11-15T00:36:09;31.90;29.55;34.99;;
69617;Laerm;58075;52.218;4.640;2022-11-15T00:36:20;30.98;29.50;32.34;;
69617;Laerm;58075;52.218;4.640;2022-11-15T00:36:32;31.05;29.52;32.73;;
69617;Laerm;58075;52.218;4.640;2022-11-15T00:36:42;31.03;29.77;32.54;;
69617;Laerm;58075;52.218;4.640;2022-11-15T00:36:53;32.21;30.52;34.59;;
69617;Laerm;58075;52.218;4.640;2022-11-15T00:37:03;32.14;29.78;36.13;;
69617;Laerm;58075;52.218;4.640;2022-11-15T00:37:13;31.00;29.34;32.80;;
69617;Laerm;58075;52.218;4.640;2022-11-15T00:37:23;32.06;29.63;37.95;;
69617;Laerm;58075;52.218;4.640;2022-11-15T00:37:34;34.60;31.99;38.30;;
69617;Laerm;58075;52.218;4.640;2022-11-15T00:37:44;40.22;32.43;47.37;;
69617;Laerm;58075;52.218;4.640;2022-11-15T00:37:55;34.63;31.44;38.39;;
69617;Laerm;58075;52.218;4.640;2022-11-15T00:38:05;34.89;30.32;38.65;;
69617;Laerm;58075;52.218;4.640;2022-11-15T00:38:15;31.48;29.39;36.23;;
69617;Laerm;58075;52.218;4.640;2022-11-15T00:38:25;31.10;29.60;32.83;;
69617;Laerm;58075;52.218;4.640;2022-11-15T00:38:40;31.69;29.87;33.30;;
69617;Laerm;58075;52.218;4.640;2022-11-15T00:38:50;31.21;29.96;32.40;;
69617;Laerm;58075;52.218;4.640;2022-11-15T00:39:02;31.11;29.51;32.87;;
69617;Laerm;58075;52.218;4.640;2022-11-15T00:39:13;30.59;29.50;32.51;;
69617;Laerm;58075;52.218;4.640;2022-11-15T00:39:23;31.24;29.74;37.04;;
69617;Laerm;58075;52.218;4.640;2022-11-15T00:39:33;30.91;29.54;32.09;;
69617;Laerm;58075;52.218;4.640;2022-11-15T00:39:44;31.11;29.44;34.85;;
69617;Laerm;58075;52.218;4.640;2022-11-15T00:39:54;30.85;29.78;32.54;;
69617;Laerm;58075;52.218;4.640;2022-11-15T00:40:04;32.04;29.30;40.83;;
69617;Laerm;58075;52.218;4.640;2022-11-15T00:40:15;33.38;30.48;47.49;;
69617;Laerm;58075;52.218;4.640;2022-11-15T00:40:25;38.55;30.80;49.48;;
69617;Laerm;58075;52.218;4.640;2022-11-15T00:40:36;36.17;30.74;46.98;;
69617;Laerm;58075;52.218;4.640;2022-11-15T00:40:46;36.35;30.35;49.39;;
69617;Laerm;58075;52.218;4.640;2022-11-15T00:40:56;36.39;29.97;48.33;;
69617;Laerm;58075;52.218;4.640;2022-11-15T00:41:07;36.07;29.87;51.15;;
69617;Laerm;58075;52.218;4.640;2022-11-15T00:41:17;32.57;29.80;40.60;;
69617;Laerm;58075;52.218;4.640;2022-11-15T00:41:27;32.86;29.80;40.75;;
69617;Laerm;58075;52.218;4.640;2022-11-15T00:41:38;32.82;30.40;43.18;;
69617;Laerm;58075;52.218;4.640;2022-11-15T00:41:48;34.69;30.89;46.32;;
69617;Laerm;58075;52.218;4.640;2022-11-15T00:41:58;31.62;30.41;34.24;;
69617;Laerm;58075;52.218;4.640;2022-11-15T00:42:09;34.14;30.05;43.65;;
69617;Laerm;58075;52.218;4.640;2022-11-15T00:42:19;42.20;30.35;53.16;;
69617;Laerm;58075;52.218;4.640;2022-11-15T00:42:29;39.58;31.12;56.31;;
69617;Laerm;58075;52.218;4.640;2022-11-15T00:42:40;32.71;30.97;37.73;;
69617;Laerm;58075;52.218;4.640;2022-11-15T00:42:50;35.73;31.15;42.22;;
69617;Laerm;58075;52.218;4.640;2022-11-15T00:43:00;41.23;37.54;45.22;;
69617;Laerm;58075;52.218;4.640;2022-11-15T00:43:10;40.94;36.82;44.25;;
69617;Laerm;58075;52.218;4.640;2022-11-15T00:43:21;35.50;31.30;38.57;;
69617;Laerm;58075;52.218;4.640;2022-11-15T00:43:31;33.78;30.52;40.57;;
69617;Laerm;58075;52.218;4.640;2022-11-15T00:43:41;32.48;30.42;36.99;;
69617;Laerm;58075;52.218;4.640;2022-11-15T00:43:53;34.04;32.06;37.63;;
69617;Laerm;58075;52.218;4.640;2022-11-15T00:44:03;33.55;31.78;42.12;;
69617;Laerm;58075;52.218;4.640;2022-11-15T00:44:14;39.80;32.23;51.23;;
69617;Laerm;58075;52.218;4.640;2022-11-15T00:44:24;32.71;30.95;37.52;;
69617;Laerm;58075;52.218;4.640;2022-11-15T00:44:34;32.60;30.30;39.30;;
69617;Laerm;58075;52.218;4.640;2022-11-15T00:44:45;34.06;30.28;44.18;;
69617;Laerm;58075;52.218;4.640;2022-11-15T00:44:55;35.46;31.31;46.85;;
69617;Laerm;58075;52.218;4.640;2022-11-15T00:45:05;32.78;30.54;42.85;;
69617;Laerm;58075;52.218;4.640;2022-11-15T00:45:16;43.23;30.17;60.96;;
69617;Laerm;58075;52.218;4.640;2022-11-15T00:45:26;31.77;30.03;34.87;;
69617;Laerm;58075;52.218;4.640;2022-11-15T00:45:36;33.92;30.22;47.05;;
69617;Laerm;58075;52.218;4.640;2022-11-15T00:45:47;37.58;30.47;53.26;;
69617;Laerm;58075;52.218;4.640;2022-11-15T00:45:57;33.53;30.91;47.48;;
69617;Laerm;58075;52.218;4.640;2022-11-15T00:46:07;31.32;29.70;32.89;;
69617;Laerm;58075;52.218;4.640;2022-11-15T00:46:19;31.51;29.62;36.47;;
69617;Laerm;58075;52.218;4.640;2022-11-15T00:46:29;33.07;29.72;41.06;;
69617;Laerm;58075;52.218;4.640;2022-11-15T00:46:40;33.10;30.52;40.37;;
69617;Laerm;58075;52.218;4.640;2022-11-15T00:46:50;32.03;30.61;35.64;;
69617;Laerm;58075;52.218;4.640;2022-11-15T00:47:00;34.45;31.32;46.19;;
69617;Laerm;58075;52.218;4.640;2022-11-15T00:47:10;43.28;32.07;58.56;;
69617;Laerm;58075;52.218;4.640;2022-11-15T00:47:21;32.93;31.28;35.59;;
69617;Laerm;58075;52.218;4.640;2022-11-15T00:47:31;34.67;32.33;43.21;;
69617;Laerm;58075;52.218;4.640;2022-11-15T00:47:44;41.46;34.23;46.25;;
69617;Laerm;58075;52.218;4.640;2022-11-15T00:47:54;37.36;33.17;47.17;;
69617;Laerm;58075;52.218;4.640;2022-11-15T00:48:04;34.19;31.90;37.32;;
69617;Laerm;58075;52.218;4.640;2022-11-15T00:48:15;33.58;31.74;36.89;;
69617;Laerm;58075;52.218;4.640;2022-11-15T00:48:25;32.83;30.21;34.28;;
69617;Laerm;58075;52.218;4.640;2022-11-15T00:48:36;32.30;30.79;33.61;;
69617;Laerm;58075;52.218;4.640;2022-11-15T00:48:46;33.14;31.50;44.21;;
69617;Laerm;58075;52.218;4.640;2022-11-15T00:48:56;31.93;30.32;35.48;;
69617;Laerm;58075;52.218;4.640;2022-11-15T00:49:07;32.50;30.72;39.27;;
69617;Laerm;58075;52.218;4.640;2022-11-15T00:49:17;31.46;29.90;33.96;;
69617;Laerm;58075;52.218;4.640;2022-11-15T00:49:27;31.92;29.97;33.51;;
69617;Laerm;58075;52.218;4.640;2022-11-15T00:49:37;36.30;31.07;51.71;;
69617;Laerm;58075;52.218;4.640;2022-11-15T00:49:48;35.94;31.39;45.17;;
69617;Laerm;58075;52.218;4.640;2022-11-15T00:49:58;32.13;30.25;40.25;;
69617;Laerm;58075;52.218;4.640;2022-11-15T00:50:08;32.41;29.78;35.17;;
69617;Laerm;58075;52.218;4.640;2022-11-15T00:50:18;31.67;30.42;33.80;;
69617;Laerm;58075;52.218;4.640;2022-11-15T00:50:29;31.44;30.06;34.34;;
69617;Laerm;58075;52.218;4.640;2022-11-15T00:50:39;31.79;30.50;34.56;;
69617;Laerm;58075;52.218;4.640;2022-11-15T00:50:50;32.14;30.52;34.42;;
69617;Laerm;58075;52.218;4.640;2022-11-15T00:51:00;31.31;29.77;33.97;;
69617;Laerm;58075;52.218;4.640;2022-11-15T00:51:10;31.65;30.15;33.95;;
69617;Laerm;58075;52.218;4.640;2022-11-15T00:51:20;31.67;29.99;34.43;;
69617;Laerm;58075;52.218;4.640;2022-11-15T00:51:31;31.45;29.70;33.11;;
69617;Laerm;58075;52.218;4.640;2022-11-15T00:51:41;31.81;30.17;33.87;;
69617;Laerm;58075;52.218;4.640;2022-11-15T00:51:51;32.40;30.86;34.30;;
69617;Laerm;58075;52.218;4.640;2022-11-15T00:52:02;34.92;31.76;40.62;;
69617;Laerm;58075;52.218;4.640;2022-11-15T00:52:12;45.35;32.18;59.44;;
69617;Laerm;58075;52.218;4.640;2022-11-15T00:52:22;36.45;31.08;47.08;;
69617;Laerm;58075;52.218;4.640;2022-11-15T00:52:32;35.10;30.37;46.67;;
69617;Laerm;58075;52.218;4.640;2022-11-15T00:52:43;31.49;29.67;32.95;;
69617;Laerm;58075;52.218;4.640;2022-11-15T00:52:53;33.21;30.28;43.57;;
69617;Laerm;58075;52.218;4.640;2022-11-15T00:53:04;31.73;29.98;36.17;;
69617;Laerm;58075;52.218;4.640;2022-11-15T00:53:14;32.50;30.73;40.52;;
69617;Laerm;58075;52.218;4.640;2022-11-15T00:53:25;38.61;30.27;54.89;;
69617;Laerm;58075;52.218;4.640;2022-11-15T00:53:35;39.63;30.82;55.04;;
69617;Laerm;58075;52.218;4.640;2022-11-15T00:53:45;32.36;30.33;34.55;;
69617;Laerm;58075;52.218;4.640;2022-11-15T00:53:56;32.97;30.88;36.64;;
69617;Laerm;58075;52.218;4.640;2022-11-15T00:54:06;31.99;30.17;33.72;;
69617;Laerm;58075;52.218;4.640;2022-11-15T00:54:16;32.65;30.86;34.07;;
69617;Laerm;58075;52.218;4.640;2022-11-15T00:54:26;31.70;30.10;33.58;;
69617;Laerm;58075;52.218;4.640;2022-11-15T00:54:37;32.55;30.32;35.01;;
69617;Laerm;58075;52.218;4.640;2022-11-15T00:54:47;31.89;30.40;33.74;;
69617;Laerm;58075;52.218;4.640;2022-11-15T00:54:57;32.10;30.13;35.07;;
69617;Laerm;58075;52.218;4.640;2022-11-15T00:55:09;32.32;30.42;37.71;;
69617;Laerm;58075;52.218;4.640;2022-11-15T00:55:23;31.60;29.83;37.63;;
69617;Laerm;58075;52.218;4.640;2022-11-15T00:55:34;31.51;30.18;32.85;;
69617;Laerm;58075;52.218;4.640;2022-11-15T00:55:44;31.87;30.40;33.48;;
69617;Laerm;58075;52.218;4.640;2022-11-15T00:55:54;32.71;30.80;37.59;;
69617;Laerm;58075;52.218;4.640;2022-11-15T00:56:05;31.60;30.26;33.36;;
69617;Laerm;58075;52.218;4.640;2022-11-15T00:56:15;37.09;30.49;46.45;;
69617;Laerm;58075;52.218;4.640;2022-11-15T00:56:25;39.01;31.17;50.34;;
69617;Laerm;58075;52.218;4.640;2022-11-15T00:56:36;38.80;31.29;49.00;;
69617;Laerm;58075;52.218;4.640;2022-11-15T00:56:46;33.08;30.99;37.13;;
69617;Laerm;58075;52.218;4.640;2022-11-15T00:56:56;32.76;30.58;35.47;;
69617;Laerm;58075;52.218;4.640;2022-11-15T00:57:06;32.03;30.80;33.46;;
69617;Laerm;58075;52.218;4.640;2022-11-15T00:57:17;31.61;30.21;32.84;;
69617;Laerm;58075;52.218;4.640;2022-11-15T00:57:27;32.05;30.59;33.94;;
69617;Laerm;58075;52.218;4.640;2022-11-15T00:57:37;35.87;30.71;48.40;;
69617;Laerm;58075;52.218;4.640;2022-11-15T00:57:47;32.78;30.00;43.43;;
69617;Laerm;58075;52.218;4.640;2022-11-15T00:57:58;32.08;29.87;34.55;;
69617;Laerm;58075;52.218;4.640;2022-11-15T00:58:08;31.99;30.20;34.16;;
69617;Laerm;58075;52.218;4.640;2022-11-15T00:58:18;34.36;30.72;38.65;;
69617;Laerm;58075;52.218;4.640;2022-11-15T00:58:29;34.13;30.78;40.22;;
69617;Laerm;58075;52.218;4.640;2022-11-15T00:58:39;33.89;31.41;37.24;;
69617;Laerm;58075;52.218;4.640;2022-11-15T00:58:49;31.74;30.68;33.10;;
69617;Laerm;58075;52.218;4.640;2022-11-15T00:59:00;32.15;30.14;34.12;;
69617;Laerm;58075;52.218;4.640;2022-11-15T00:59:10;35.21;30.52;52.58;;
69617;Laerm;58075;52.218;4.640;2022-11-15T00:59:20;34.60;30.45;46.43;;